sensor_id;sensor_type;location;lat;lon;timestamp;P1;durP1;ratioP1;P2;durP2;ratioP2
70997;SDS011;58663;52.040;4.634;2023-08-06T00:00:37;23.63;;;13.07;;
70997;SDS011;58663;52.040;4.634;2023-08-06T00:03:02;24.88;;;14.25;;
70997;SDS011;58663;52.040;4.634;2023-08-06T00:05:28;29.88;;;13.93;;
70997;SDS011;58663;52.040;4.634;2023-08-06T00:07:53;26.95;;;13.98;;
70997;SDS011;58663;52.040;4.634;2023-08-06T00:10:18;30.23;;;14.77;;
70997;SDS011;58663;52.040;4.634;2023-08-06T00:12:44;24.50;;;14.00;;
70997;SDS011;58663;52.040;4.634;2023-08-06T00:15:10;29.17;;;13.63;;
70997;SDS011;58663;52.040;4.634;2023-08-06T00:17:35;25.58;;;13.77;;
70997;SDS011;58663;52.040;4.634;2023-08-06T00:20:01;34.00;;;15.48;;
70997;SDS011;58663;52.040;4.634;2023-08-06T00:22:35;26.02;;;14.00;;
70997;SDS011;58663;52.040;4.634;2023-08-06T00:25:01;33.85;;;15.52;;
70997;SDS011;58663;52.040;4.634;2023-08-06T00:27:26;26.65;;;14.40;;
70997;SDS011;58663;52.040;4.634;2023-08-06T00:29:52;26.65;;;14.23;;
70997;SDS011;58663;52.040;4.634;2023-08-06T00:32:17;30.10;;;14.70;;
70997;SDS011;58663;52.040;4.634;2023-08-06T00:34:43;21.88;;;13.15;;
70997;SDS011;58663;52.040;4.634;2023-08-06T00:37:08;29.02;;;14.23;;
70997;SDS011;58663;52.040;4.634;2023-08-06T00:39:33;28.27;;;15.15;;
70997;SDS011;58663;52.040;4.634;2023-08-06T00:41:59;32.08;;;14.70;;
70997;SDS011;58663;52.040;4.634;2023-08-06T00:44:24;30.00;;;14.45;;
70997;SDS011;58663;52.040;4.634;2023-08-06T00:46:49;29.13;;;14.13;;
70997;SDS011;58663;52.040;4.634;2023-08-06T00:49:15;25.75;;;14.10;;
70997;SDS011;58663;52.040;4.634;2023-08-06T00:51:40;27.25;;;14.77;;
70997;SDS011;58663;52.040;4.634;2023-08-06T00:54:06;30.90;;;15.07;;
70997;SDS011;58663;52.040;4.634;2023-08-06T00:56:32;26.83;;;15.00;;
70997;SDS011;58663;52.040;4.634;2023-08-06T00:59:00;26.90;;;14.77;;
70997;SDS011;58663;52.040;4.634;2023-08-06T01:01:26;23.65;;;14.05;;
70997;SDS011;58663;52.040;4.634;2023-08-06T01:03:52;27.42;;;14.52;;
70997;SDS011;58663;52.040;4.634;2023-08-06T01:06:19;25.95;;;13.93;;
70997;SDS011;58663;52.040;4.634;2023-08-06T01:08:56;24.75;;;14.30;;
70997;SDS011;58663;52.040;4.634;2023-08-06T01:11:37;28.93;;;14.60;;
70997;SDS011;58663;52.040;4.634;2023-08-06T01:14:08;30.15;;;15.00;;
70997;SDS011;58663;52.040;4.634;2023-08-06T01:16:49;26.80;;;14.00;;
70997;SDS011;58663;52.040;4.634;2023-08-06T01:19:19;28.30;;;14.55;;
70997;SDS011;58663;52.040;4.634;2023-08-06T01:21:44;31.00;;;15.38;;
70997;SDS011;58663;52.040;4.634;2023-08-06T01:24:10;28.88;;;15.15;;
70997;SDS011;58663;52.040;4.634;2023-08-06T01:26:37;34.75;;;16.00;;
70997;SDS011;58663;52.040;4.634;2023-08-06T01:29:15;24.65;;;14.32;;
70997;SDS011;58663;52.040;4.634;2023-08-06T01:31:45;27.25;;;15.07;;
70997;SDS011;58663;52.040;4.634;2023-08-06T01:34:14;27.58;;;14.98;;
70997;SDS011;58663;52.040;4.634;2023-08-06T01:36:48;25.48;;;14.45;;
70997;SDS011;58663;52.040;4.634;2023-08-06T01:39:14;36.17;;;16.55;;
70997;SDS011;58663;52.040;4.634;2023-08-06T01:41:40;31.25;;;16.08;;
70997;SDS011;58663;52.040;4.634;2023-08-06T01:44:05;27.85;;;15.32;;
70997;SDS011;58663;52.040;4.634;2023-08-06T01:46:30;28.20;;;14.98;;
70997;SDS011;58663;52.040;4.634;2023-08-06T01:48:56;29.27;;;15.70;;
70997;SDS011;58663;52.040;4.634;2023-08-06T01:51:21;33.58;;;15.45;;
70997;SDS011;58663;52.040;4.634;2023-08-06T01:53:47;29.63;;;15.27;;
70997;SDS011;58663;52.040;4.634;2023-08-06T01:56:12;28.52;;;14.48;;
70997;SDS011;58663;52.040;4.634;2023-08-06T01:58:37;26.90;;;14.93;;
70997;SDS011;58663;52.040;4.634;2023-08-06T02:01:03;27.98;;;14.55;;
70997;SDS011;58663;52.040;4.634;2023-08-06T02:03:28;26.02;;;14.63;;
70997;SDS011;58663;52.040;4.634;2023-08-06T02:05:53;27.42;;;15.57;;
70997;SDS011;58663;52.040;4.634;2023-08-06T02:08:19;27.90;;;15.10;;
70997;SDS011;58663;52.040;4.634;2023-08-06T02:10:44;29.63;;;15.20;;
70997;SDS011;58663;52.040;4.634;2023-08-06T02:13:10;28.48;;;15.55;;
70997;SDS011;58663;52.040;4.634;2023-08-06T02:15:36;28.52;;;14.82;;
70997;SDS011;58663;52.040;4.634;2023-08-06T02:18:07;30.00;;;14.50;;
70997;SDS011;58663;52.040;4.634;2023-08-06T02:20:32;31.33;;;15.15;;
70997;SDS011;58663;52.040;4.634;2023-08-06T02:22:57;28.55;;;13.43;;
70997;SDS011;58663;52.040;4.634;2023-08-06T02:25:23;31.48;;;15.00;;
70997;SDS011;58663;52.040;4.634;2023-08-06T02:27:49;27.05;;;14.57;;
70997;SDS011;58663;52.040;4.634;2023-08-06T02:30:14;31.77;;;15.25;;
70997;SDS011;58663;52.040;4.634;2023-08-06T02:32:39;28.13;;;14.95;;
70997;SDS011;58663;52.040;4.634;2023-08-06T02:35:05;33.95;;;16.33;;
70997;SDS011;58663;52.040;4.634;2023-08-06T02:37:32;31.08;;;15.45;;
70997;SDS011;58663;52.040;4.634;2023-08-06T02:39:59;24.40;;;14.48;;
70997;SDS011;58663;52.040;4.634;2023-08-06T02:42:24;30.05;;;15.57;;
70997;SDS011;58663;52.040;4.634;2023-08-06T02:44:51;29.02;;;15.60;;
70997;SDS011;58663;52.040;4.634;2023-08-06T02:47:17;30.48;;;15.77;;
70997;SDS011;58663;52.040;4.634;2023-08-06T02:49:43;29.98;;;15.23;;
70997;SDS011;58663;52.040;4.634;2023-08-06T02:52:08;31.80;;;15.43;;
70997;SDS011;58663;52.040;4.634;2023-08-06T02:54:33;29.02;;;14.65;;
70997;SDS011;58663;52.040;4.634;2023-08-06T02:56:59;30.38;;;15.20;;
70997;SDS011;58663;52.040;4.634;2023-08-06T02:59:24;29.83;;;17.23;;
70997;SDS011;58663;52.040;4.634;2023-08-06T03:01:50;29.15;;;16.33;;
70997;SDS011;58663;52.040;4.634;2023-08-06T03:04:15;29.48;;;15.38;;
70997;SDS011;58663;52.040;4.634;2023-08-06T03:06:44;31.92;;;16.52;;
70997;SDS011;58663;52.040;4.634;2023-08-06T03:09:09;28.15;;;15.98;;
70997;SDS011;58663;52.040;4.634;2023-08-06T03:11:34;27.63;;;15.38;;
70997;SDS011;58663;52.040;4.634;2023-08-06T03:14:00;35.00;;;16.83;;
70997;SDS011;58663;52.040;4.634;2023-08-06T03:16:25;33.30;;;16.73;;
70997;SDS011;58663;52.040;4.634;2023-08-06T03:18:50;38.65;;;17.80;;
70997;SDS011;58663;52.040;4.634;2023-08-06T03:21:16;33.03;;;16.80;;
70997;SDS011;58663;52.040;4.634;2023-08-06T03:23:41;28.83;;;16.70;;
70997;SDS011;58663;52.040;4.634;2023-08-06T03:26:07;30.00;;;16.05;;
70997;SDS011;58663;52.040;4.634;2023-08-06T03:28:33;22.25;;;11.85;;
70997;SDS011;58663;52.040;4.634;2023-08-06T03:31:01;18.63;;;9.77;;
70997;SDS011;58663;52.040;4.634;2023-08-06T03:33:27;15.15;;;8.07;;
70997;SDS011;58663;52.040;4.634;2023-08-06T03:35:53;13.73;;;7.68;;
70997;SDS011;58663;52.040;4.634;2023-08-06T03:38:18;14.50;;;5.65;;
70997;SDS011;58663;52.040;4.634;2023-08-06T03:40:44;15.38;;;5.30;;
70997;SDS011;58663;52.040;4.634;2023-08-06T03:43:09;9.57;;;5.05;;
70997;SDS011;58663;52.040;4.634;2023-08-06T03:45:34;10.80;;;5.15;;
70997;SDS011;58663;52.040;4.634;2023-08-06T03:48:00;9.98;;;5.20;;
70997;SDS011;58663;52.040;4.634;2023-08-06T03:50:25;13.60;;;7.30;;
70997;SDS011;58663;52.040;4.634;2023-08-06T03:52:50;19.80;;;9.57;;
70997;SDS011;58663;52.040;4.634;2023-08-06T03:55:16;18.63;;;11.25;;
70997;SDS011;58663;52.040;4.634;2023-08-06T03:57:41;23.00;;;11.43;;
70997;SDS011;58663;52.040;4.634;2023-08-06T04:00:06;24.17;;;10.32;;
70997;SDS011;58663;52.040;4.634;2023-08-06T04:02:32;12.30;;;6.60;;
70997;SDS011;58663;52.040;4.634;2023-08-06T04:04:57;12.45;;;5.97;;
70997;SDS011;58663;52.040;4.634;2023-08-06T04:07:24;11.48;;;5.07;;
70997;SDS011;58663;52.040;4.634;2023-08-06T04:09:59;9.38;;;5.55;;
70997;SDS011;58663;52.040;4.634;2023-08-06T04:12:25;12.13;;;4.78;;
70997;SDS011;58663;52.040;4.634;2023-08-06T04:14:52;9.90;;;5.30;;
70997;SDS011;58663;52.040;4.634;2023-08-06T04:17:18;9.25;;;4.90;;
70997;SDS011;58663;52.040;4.634;2023-08-06T04:19:50;14.75;;;5.25;;
70997;SDS011;58663;52.040;4.634;2023-08-06T04:22:17;12.88;;;5.55;;
70997;SDS011;58663;52.040;4.634;2023-08-06T04:24:42;7.25;;;5.13;;
70997;SDS011;58663;52.040;4.634;2023-08-06T04:27:11;11.15;;;5.07;;
70997;SDS011;58663;52.040;4.634;2023-08-06T04:29:37;23.92;;;5.85;;
70997;SDS011;58663;52.040;4.634;2023-08-06T04:32:03;10.27;;;6.20;;
70997;SDS011;58663;52.040;4.634;2023-08-06T04:34:30;10.35;;;5.30;;
70997;SDS011;58663;52.040;4.634;2023-08-06T04:36:55;14.95;;;5.57;;
70997;SDS011;58663;52.040;4.634;2023-08-06T04:39:21;11.27;;;5.50;;
70997;SDS011;58663;52.040;4.634;2023-08-06T04:41:46;11.40;;;6.10;;
70997;SDS011;58663;52.040;4.634;2023-08-06T04:44:11;13.07;;;6.18;;
70997;SDS011;58663;52.040;4.634;2023-08-06T04:46:37;10.02;;;5.65;;
70997;SDS011;58663;52.040;4.634;2023-08-06T04:49:02;23.17;;;6.28;;
70997;SDS011;58663;52.040;4.634;2023-08-06T04:51:27;12.52;;;6.43;;
70997;SDS011;58663;52.040;4.634;2023-08-06T04:53:53;17.75;;;5.97;;
70997;SDS011;58663;52.040;4.634;2023-08-06T04:56:18;17.63;;;7.05;;
70997;SDS011;58663;52.040;4.634;2023-08-06T04:58:44;17.27;;;7.50;;
70997;SDS011;58663;52.040;4.634;2023-08-06T05:01:09;13.77;;;6.20;;
70997;SDS011;58663;52.040;4.634;2023-08-06T05:03:34;16.30;;;6.93;;
70997;SDS011;58663;52.040;4.634;2023-08-06T05:06:00;12.32;;;6.85;;
70997;SDS011;58663;52.040;4.634;2023-08-06T05:08:25;13.68;;;6.68;;
70997;SDS011;58663;52.040;4.634;2023-08-06T05:10:50;14.98;;;6.82;;
70997;SDS011;58663;52.040;4.634;2023-08-06T05:13:16;12.80;;;7.25;;
70997;SDS011;58663;52.040;4.634;2023-08-06T05:15:41;15.68;;;6.75;;
70997;SDS011;58663;52.040;4.634;2023-08-06T05:18:07;11.63;;;6.95;;
70997;SDS011;58663;52.040;4.634;2023-08-06T05:20:36;15.40;;;6.55;;
70997;SDS011;58663;52.040;4.634;2023-08-06T05:23:05;11.98;;;7.30;;
70997;SDS011;58663;52.040;4.634;2023-08-06T05:25:30;12.82;;;7.40;;
70997;SDS011;58663;52.040;4.634;2023-08-06T05:27:56;10.38;;;7.07;;
70997;SDS011;58663;52.040;4.634;2023-08-06T05:30:21;12.63;;;7.57;;
70997;SDS011;58663;52.040;4.634;2023-08-06T05:32:47;27.70;;;8.20;;
70997;SDS011;58663;52.040;4.634;2023-08-06T05:35:12;18.50;;;7.95;;
70997;SDS011;58663;52.040;4.634;2023-08-06T05:37:38;13.30;;;7.45;;
70997;SDS011;58663;52.040;4.634;2023-08-06T05:40:03;14.90;;;7.55;;
70997;SDS011;58663;52.040;4.634;2023-08-06T05:42:29;14.02;;;7.50;;
70997;SDS011;58663;52.040;4.634;2023-08-06T05:44:54;13.68;;;7.75;;
70997;SDS011;58663;52.040;4.634;2023-08-06T05:47:20;16.58;;;8.18;;
70997;SDS011;58663;52.040;4.634;2023-08-06T05:49:45;10.95;;;7.32;;
70997;SDS011;58663;52.040;4.634;2023-08-06T05:52:10;15.48;;;7.78;;
70997;SDS011;58663;52.040;4.634;2023-08-06T05:54:36;17.00;;;8.25;;
70997;SDS011;58663;52.040;4.634;2023-08-06T05:57:01;17.50;;;8.57;;
70997;SDS011;58663;52.040;4.634;2023-08-06T05:59:27;12.63;;;8.55;;
70997;SDS011;58663;52.040;4.634;2023-08-06T06:01:52;15.32;;;7.80;;
70997;SDS011;58663;52.040;4.634;2023-08-06T06:04:18;17.90;;;8.98;;
70997;SDS011;58663;52.040;4.634;2023-08-06T06:06:43;13.18;;;8.68;;
70997;SDS011;58663;52.040;4.634;2023-08-06T06:09:09;14.98;;;8.73;;
70997;SDS011;58663;52.040;4.634;2023-08-06T06:11:35;16.48;;;7.88;;
70997;SDS011;58663;52.040;4.634;2023-08-06T06:14:00;21.45;;;9.07;;
70997;SDS011;58663;52.040;4.634;2023-08-06T06:16:26;16.55;;;9.73;;
70997;SDS011;58663;52.040;4.634;2023-08-06T06:18:51;19.92;;;9.02;;
70997;SDS011;58663;52.040;4.634;2023-08-06T06:21:16;16.98;;;8.98;;
70997;SDS011;58663;52.040;4.634;2023-08-06T06:23:42;18.52;;;9.40;;
70997;SDS011;58663;52.040;4.634;2023-08-06T06:26:07;22.33;;;10.05;;
70997;SDS011;58663;52.040;4.634;2023-08-06T06:28:33;19.17;;;8.82;;
70997;SDS011;58663;52.040;4.634;2023-08-06T06:31:01;16.67;;;9.35;;
70997;SDS011;58663;52.040;4.634;2023-08-06T06:33:27;18.63;;;8.73;;
70997;SDS011;58663;52.040;4.634;2023-08-06T06:35:52;21.52;;;8.40;;
70997;SDS011;58663;52.040;4.634;2023-08-06T06:38:18;14.00;;;8.00;;
70997;SDS011;58663;52.040;4.634;2023-08-06T06:40:43;16.35;;;7.75;;
70997;SDS011;58663;52.040;4.634;2023-08-06T06:43:08;12.73;;;6.38;;
70997;SDS011;58663;52.040;4.634;2023-08-06T06:45:34;15.85;;;6.18;;
70997;SDS011;58663;52.040;4.634;2023-08-06T06:47:59;11.00;;;5.45;;
70997;SDS011;58663;52.040;4.634;2023-08-06T06:50:24;12.25;;;4.72;;
70997;SDS011;58663;52.040;4.634;2023-08-06T06:52:51;8.90;;;3.72;;
70997;SDS011;58663;52.040;4.634;2023-08-06T06:55:16;11.50;;;3.35;;
70997;SDS011;58663;52.040;4.634;2023-08-06T06:57:42;11.48;;;3.78;;
70997;SDS011;58663;52.040;4.634;2023-08-06T07:00:07;8.80;;;3.63;;
70997;SDS011;58663;52.040;4.634;2023-08-06T07:02:33;7.65;;;3.53;;
70997;SDS011;58663;52.040;4.634;2023-08-06T07:04:58;8.70;;;3.20;;
70997;SDS011;58663;52.040;4.634;2023-08-06T07:07:23;6.20;;;2.50;;
70997;SDS011;58663;52.040;4.634;2023-08-06T07:09:49;3.80;;;2.15;;
70997;SDS011;58663;52.040;4.634;2023-08-06T07:12:14;11.25;;;3.13;;
70997;SDS011;58663;52.040;4.634;2023-08-06T07:14:39;7.72;;;2.20;;
70997;SDS011;58663;52.040;4.634;2023-08-06T07:17:05;6.72;;;2.47;;
70997;SDS011;58663;52.040;4.634;2023-08-06T07:19:30;9.27;;;2.30;;
70997;SDS011;58663;52.040;4.634;2023-08-06T07:21:56;5.88;;;2.30;;
70997;SDS011;58663;52.040;4.634;2023-08-06T07:24:21;4.30;;;1.95;;
70997;SDS011;58663;52.040;4.634;2023-08-06T07:26:46;6.95;;;2.17;;
70997;SDS011;58663;52.040;4.634;2023-08-06T07:29:12;4.45;;;1.80;;
70997;SDS011;58663;52.040;4.634;2023-08-06T07:31:37;4.13;;;2.15;;
70997;SDS011;58663;52.040;4.634;2023-08-06T07:34:03;3.95;;;1.80;;
70997;SDS011;58663;52.040;4.634;2023-08-06T07:36:28;5.90;;;2.75;;
70997;SDS011;58663;52.040;4.634;2023-08-06T07:38:53;5.75;;;2.40;;
70997;SDS011;58663;52.040;4.634;2023-08-06T07:41:24;5.40;;;1.80;;
70997;SDS011;58663;52.040;4.634;2023-08-06T07:43:50;4.05;;;2.05;;
70997;SDS011;58663;52.040;4.634;2023-08-06T07:46:15;5.60;;;2.05;;
70997;SDS011;58663;52.040;4.634;2023-08-06T07:48:41;7.03;;;2.10;;
70997;SDS011;58663;52.040;4.634;2023-08-06T07:51:06;6.68;;;2.20;;
70997;SDS011;58663;52.040;4.634;2023-08-06T07:53:32;4.65;;;2.42;;
70997;SDS011;58663;52.040;4.634;2023-08-06T07:55:57;4.82;;;2.17;;
70997;SDS011;58663;52.040;4.634;2023-08-06T07:58:23;5.03;;;2.17;;
70997;SDS011;58663;52.040;4.634;2023-08-06T08:00:49;6.88;;;1.83;;
70997;SDS011;58663;52.040;4.634;2023-08-06T08:03:15;6.85;;;2.25;;
70997;SDS011;58663;52.040;4.634;2023-08-06T08:05:41;5.20;;;2.22;;
70997;SDS011;58663;52.040;4.634;2023-08-06T08:08:07;3.67;;;1.90;;
70997;SDS011;58663;52.040;4.634;2023-08-06T08:10:33;8.40;;;1.95;;
70997;SDS011;58663;52.040;4.634;2023-08-06T08:12:59;3.85;;;2.15;;
70997;SDS011;58663;52.040;4.634;2023-08-06T08:15:25;3.83;;;2.80;;
70997;SDS011;58663;52.040;4.634;2023-08-06T08:17:53;6.80;;;1.90;;
70997;SDS011;58663;52.040;4.634;2023-08-06T08:20:19;6.05;;;2.03;;
70997;SDS011;58663;52.040;4.634;2023-08-06T08:22:44;4.10;;;1.65;;
70997;SDS011;58663;52.040;4.634;2023-08-06T08:25:09;3.20;;;1.70;;
70997;SDS011;58663;52.040;4.634;2023-08-06T08:27:35;3.33;;;1.70;;
70997;SDS011;58663;52.040;4.634;2023-08-06T08:30:00;7.55;;;2.28;;
70997;SDS011;58663;52.040;4.634;2023-08-06T08:32:26;2.58;;;1.60;;
70997;SDS011;58663;52.040;4.634;2023-08-06T08:34:52;4.50;;;2.20;;
70997;SDS011;58663;52.040;4.634;2023-08-06T08:37:18;3.38;;;2.00;;
70997;SDS011;58663;52.040;4.634;2023-08-06T08:39:43;7.47;;;2.00;;
70997;SDS011;58663;52.040;4.634;2023-08-06T08:42:09;7.68;;;2.10;;
70997;SDS011;58663;52.040;4.634;2023-08-06T08:44:35;4.70;;;2.10;;
70997;SDS011;58663;52.040;4.634;2023-08-06T08:47:04;5.65;;;2.38;;
70997;SDS011;58663;52.040;4.634;2023-08-06T08:49:30;7.55;;;2.40;;
70997;SDS011;58663;52.040;4.634;2023-08-06T08:51:56;5.78;;;2.38;;
70997;SDS011;58663;52.040;4.634;2023-08-06T08:54:22;6.50;;;2.40;;
70997;SDS011;58663;52.040;4.634;2023-08-06T08:56:48;7.38;;;2.15;;
70997;SDS011;58663;52.040;4.634;2023-08-06T08:59:13;6.28;;;2.30;;
70997;SDS011;58663;52.040;4.634;2023-08-06T09:01:39;6.30;;;2.47;;
70997;SDS011;58663;52.040;4.634;2023-08-06T09:04:05;5.95;;;2.60;;
70997;SDS011;58663;52.040;4.634;2023-08-06T09:06:30;4.03;;;2.50;;
70997;SDS011;58663;52.040;4.634;2023-08-06T09:09:17;4.25;;;2.17;;
70997;SDS011;58663;52.040;4.634;2023-08-06T09:11:53;10.35;;;2.55;;
70997;SDS011;58663;52.040;4.634;2023-08-06T09:14:20;5.65;;;2.67;;
70997;SDS011;58663;52.040;4.634;2023-08-06T09:16:46;7.40;;;3.15;;
70997;SDS011;58663;52.040;4.634;2023-08-06T09:19:12;4.20;;;2.50;;
70997;SDS011;58663;52.040;4.634;2023-08-06T09:21:39;6.13;;;2.75;;
70997;SDS011;58663;52.040;4.634;2023-08-06T09:24:11;5.63;;;2.58;;
70997;SDS011;58663;52.040;4.634;2023-08-06T09:26:37;4.55;;;2.22;;
70997;SDS011;58663;52.040;4.634;2023-08-06T09:29:07;6.80;;;2.28;;
70997;SDS011;58663;52.040;4.634;2023-08-06T09:31:34;5.03;;;2.13;;
70997;SDS011;58663;52.040;4.634;2023-08-06T09:34:17;8.07;;;2.65;;
70997;SDS011;58663;52.040;4.634;2023-08-06T09:36:46;5.70;;;2.20;;
70997;SDS011;58663;52.040;4.634;2023-08-06T09:39:18;4.32;;;2.00;;
70997;SDS011;58663;52.040;4.634;2023-08-06T09:41:46;3.63;;;1.85;;
70997;SDS011;58663;52.040;4.634;2023-08-06T09:44:15;5.30;;;2.20;;
70997;SDS011;58663;52.040;4.634;2023-08-06T09:46:51;6.80;;;1.90;;
70997;SDS011;58663;52.040;4.634;2023-08-06T09:49:18;6.70;;;1.70;;
70997;SDS011;58663;52.040;4.634;2023-08-06T09:51:45;3.75;;;1.73;;
70997;SDS011;58663;52.040;4.634;2023-08-06T09:54:15;5.22;;;1.83;;
70997;SDS011;58663;52.040;4.634;2023-08-06T09:56:40;2.13;;;1.63;;
70997;SDS011;58663;52.040;4.634;2023-08-06T09:59:07;4.50;;;1.67;;
70997;SDS011;58663;52.040;4.634;2023-08-06T10:01:35;5.30;;;1.67;;
70997;SDS011;58663;52.040;4.634;2023-08-06T10:04:01;4.65;;;1.88;;
70997;SDS011;58663;52.040;4.634;2023-08-06T10:06:28;3.00;;;1.73;;
70997;SDS011;58663;52.040;4.634;2023-08-06T10:08:54;3.83;;;1.50;;
70997;SDS011;58663;52.040;4.634;2023-08-06T10:11:21;2.10;;;1.70;;
70997;SDS011;58663;52.040;4.634;2023-08-06T10:13:47;6.72;;;1.75;;
70997;SDS011;58663;52.040;4.634;2023-08-06T10:16:13;4.63;;;2.00;;
70997;SDS011;58663;52.040;4.634;2023-08-06T10:18:39;5.15;;;1.75;;
70997;SDS011;58663;52.040;4.634;2023-08-06T10:21:07;3.10;;;1.33;;
70997;SDS011;58663;52.040;4.634;2023-08-06T10:23:34;2.88;;;1.42;;
70997;SDS011;58663;52.040;4.634;2023-08-06T10:26:00;5.00;;;1.77;;
70997;SDS011;58663;52.040;4.634;2023-08-06T10:28:33;3.97;;;1.50;;
70997;SDS011;58663;52.040;4.634;2023-08-06T10:31:02;4.13;;;1.35;;
70997;SDS011;58663;52.040;4.634;2023-08-06T10:33:44;3.95;;;1.52;;
70997;SDS011;58663;52.040;4.634;2023-08-06T10:36:10;8.60;;;1.80;;
70997;SDS011;58663;52.040;4.634;2023-08-06T10:38:44;6.55;;;1.75;;
70997;SDS011;58663;52.040;4.634;2023-08-06T10:41:23;6.03;;;1.40;;
70997;SDS011;58663;52.040;4.634;2023-08-06T10:43:52;3.20;;;1.27;;
70997;SDS011;58663;52.040;4.634;2023-08-06T10:46:32;7.65;;;1.48;;
70997;SDS011;58663;52.040;4.634;2023-08-06T10:48:57;3.67;;;1.60;;
70997;SDS011;58663;52.040;4.634;2023-08-06T10:51:23;2.65;;;1.35;;
70997;SDS011;58663;52.040;4.634;2023-08-06T10:53:48;2.90;;;1.42;;
70997;SDS011;58663;52.040;4.634;2023-08-06T10:56:18;4.07;;;1.10;;
70997;SDS011;58663;52.040;4.634;2023-08-06T10:58:53;5.63;;;1.70;;
70997;SDS011;58663;52.040;4.634;2023-08-06T11:01:21;8.35;;;1.35;;
70997;SDS011;58663;52.040;4.634;2023-08-06T11:03:47;3.65;;;1.65;;
70997;SDS011;58663;52.040;4.634;2023-08-06T11:06:22;2.90;;;1.60;;
70997;SDS011;58663;52.040;4.634;2023-08-06T11:08:49;2.35;;;1.27;;
70997;SDS011;58663;52.040;4.634;2023-08-06T11:11:16;3.90;;;1.20;;
70997;SDS011;58663;52.040;4.634;2023-08-06T11:13:42;2.78;;;1.30;;
70997;SDS011;58663;52.040;4.634;2023-08-06T11:16:11;5.38;;;1.50;;
70997;SDS011;58663;52.040;4.634;2023-08-06T11:18:36;2.80;;;1.35;;
70997;SDS011;58663;52.040;4.634;2023-08-06T11:21:02;7.50;;;1.52;;
70997;SDS011;58663;52.040;4.634;2023-08-06T11:23:27;3.60;;;1.35;;
70997;SDS011;58663;52.040;4.634;2023-08-06T11:25:54;2.47;;;1.40;;
70997;SDS011;58663;52.040;4.634;2023-08-06T11:28:19;6.15;;;1.15;;
70997;SDS011;58663;52.040;4.634;2023-08-06T11:30:46;3.08;;;1.20;;
70997;SDS011;58663;52.040;4.634;2023-08-06T11:33:12;3.65;;;1.10;;
70997;SDS011;58663;52.040;4.634;2023-08-06T11:35:37;7.82;;;1.00;;
70997;SDS011;58663;52.040;4.634;2023-08-06T11:38:03;2.35;;;1.08;;
70997;SDS011;58663;52.040;4.634;2023-08-06T11:40:28;3.97;;;1.10;;
70997;SDS011;58663;52.040;4.634;2023-08-06T11:42:54;1.98;;;1.30;;
70997;SDS011;58663;52.040;4.634;2023-08-06T11:45:24;3.55;;;1.55;;
70997;SDS011;58663;52.040;4.634;2023-08-06T11:47:50;2.08;;;1.30;;
70997;SDS011;58663;52.040;4.634;2023-08-06T11:50:24;3.67;;;1.38;;
70997;SDS011;58663;52.040;4.634;2023-08-06T11:52:52;2.38;;;1.00;;
70997;SDS011;58663;52.040;4.634;2023-08-06T11:55:22;2.15;;;1.30;;
70997;SDS011;58663;52.040;4.634;2023-08-06T11:57:49;4.88;;;0.95;;
70997;SDS011;58663;52.040;4.634;2023-08-06T12:00:14;4.40;;;1.40;;
70997;SDS011;58663;52.040;4.634;2023-08-06T12:02:42;3.17;;;1.10;;
70997;SDS011;58663;52.040;4.634;2023-08-06T12:07:46;5.63;;;1.35;;
70997;SDS011;58663;52.040;4.634;2023-08-06T12:10:12;2.30;;;0.80;;
70997;SDS011;58663;52.040;4.634;2023-08-06T12:12:38;3.25;;;0.98;;
70997;SDS011;58663;52.040;4.634;2023-08-06T12:15:04;1.92;;;0.98;;
70997;SDS011;58663;52.040;4.634;2023-08-06T12:17:34;1.83;;;0.95;;
70997;SDS011;58663;52.040;4.634;2023-08-06T12:20:00;1.88;;;1.00;;
70997;SDS011;58663;52.040;4.634;2023-08-06T12:22:25;2.17;;;0.80;;
70997;SDS011;58663;52.040;4.634;2023-08-06T12:24:51;3.38;;;0.70;;
70997;SDS011;58663;52.040;4.634;2023-08-06T12:27:16;1.27;;;0.75;;
70997;SDS011;58663;52.040;4.634;2023-08-06T12:29:42;0.70;;;0.70;;
70997;SDS011;58663;52.040;4.634;2023-08-06T12:32:09;5.35;;;1.23;;
70997;SDS011;58663;52.040;4.634;2023-08-06T12:34:38;0.70;;;0.70;;
70997;SDS011;58663;52.040;4.634;2023-08-06T12:37:04;3.10;;;0.70;;
70997;SDS011;58663;52.040;4.634;2023-08-06T12:39:30;3.28;;;0.90;;
70997;SDS011;58663;52.040;4.634;2023-08-06T12:41:56;0.95;;;0.65;;
70997;SDS011;58663;52.040;4.634;2023-08-06T12:44:22;3.97;;;1.10;;
70997;SDS011;58663;52.040;4.634;2023-08-06T12:46:49;1.30;;;0.50;;
70997;SDS011;58663;52.040;4.634;2023-08-06T12:49:14;1.42;;;0.73;;
70997;SDS011;58663;52.040;4.634;2023-08-06T12:51:40;4.05;;;0.80;;
70997;SDS011;58663;52.040;4.634;2023-08-06T12:54:05;0.60;;;0.60;;
70997;SDS011;58663;52.040;4.634;2023-08-06T12:56:30;1.30;;;0.70;;
70997;SDS011;58663;52.040;4.634;2023-08-06T12:58:56;1.20;;;0.90;;
70997;SDS011;58663;52.040;4.634;2023-08-06T13:01:21;0.95;;;0.70;;
70997;SDS011;58663;52.040;4.634;2023-08-06T13:03:47;6.60;;;0.90;;
70997;SDS011;58663;52.040;4.634;2023-08-06T13:06:12;1.50;;;0.80;;
70997;SDS011;58663;52.040;4.634;2023-08-06T13:08:37;2.15;;;0.88;;
70997;SDS011;58663;52.040;4.634;2023-08-06T13:11:03;0.60;;;0.60;;
70997;SDS011;58663;52.040;4.634;2023-08-06T13:13:29;2.38;;;0.73;;
70997;SDS011;58663;52.040;4.634;2023-08-06T13:15:55;2.00;;;0.70;;
70997;SDS011;58663;52.040;4.634;2023-08-06T13:18:20;2.70;;;0.98;;
70997;SDS011;58663;52.040;4.634;2023-08-06T13:20:46;1.60;;;0.90;;
70997;SDS011;58663;52.040;4.634;2023-08-06T13:23:13;1.45;;;0.90;;
70997;SDS011;58663;52.040;4.634;2023-08-06T13:25:41;4.78;;;0.93;;
70997;SDS011;58663;52.040;4.634;2023-08-06T13:28:06;5.72;;;1.27;;
70997;SDS011;58663;52.040;4.634;2023-08-06T13:30:32;3.97;;;0.88;;
70997;SDS011;58663;52.040;4.634;2023-08-06T13:32:57;2.47;;;1.05;;
70997;SDS011;58663;52.040;4.634;2023-08-06T13:35:23;3.20;;;1.10;;
70997;SDS011;58663;52.040;4.634;2023-08-06T13:37:48;1.00;;;0.90;;
70997;SDS011;58663;52.040;4.634;2023-08-06T13:40:14;4.03;;;1.20;;
70997;SDS011;58663;52.040;4.634;2023-08-06T13:42:40;3.65;;;1.50;;
70997;SDS011;58663;52.040;4.634;2023-08-06T13:45:06;4.28;;;1.10;;
70997;SDS011;58663;52.040;4.634;2023-08-06T13:47:31;3.65;;;1.45;;
70997;SDS011;58663;52.040;4.634;2023-08-06T13:49:57;3.88;;;1.23;;
70997;SDS011;58663;52.040;4.634;2023-08-06T13:52:22;3.20;;;1.05;;
70997;SDS011;58663;52.040;4.634;2023-08-06T13:54:48;4.53;;;1.40;;
70997;SDS011;58663;52.040;4.634;2023-08-06T13:57:13;3.05;;;1.10;;
70997;SDS011;58663;52.040;4.634;2023-08-06T13:59:38;7.00;;;1.08;;
70997;SDS011;58663;52.040;4.634;2023-08-06T14:02:04;6.78;;;1.30;;
70997;SDS011;58663;52.040;4.634;2023-08-06T14:04:29;10.50;;;1.50;;
70997;SDS011;58663;52.040;4.634;2023-08-06T14:06:55;2.95;;;1.10;;
70997;SDS011;58663;52.040;4.634;2023-08-06T14:09:20;6.30;;;1.40;;
70997;SDS011;58663;52.040;4.634;2023-08-06T14:11:45;8.38;;;1.23;;
70997;SDS011;58663;52.040;4.634;2023-08-06T14:14:11;5.03;;;1.30;;
70997;SDS011;58663;52.040;4.634;2023-08-06T14:16:36;6.10;;;1.25;;
70997;SDS011;58663;52.040;4.634;2023-08-06T14:19:02;4.72;;;1.20;;
70997;SDS011;58663;52.040;4.634;2023-08-06T14:21:28;5.15;;;1.13;;
70997;SDS011;58663;52.040;4.634;2023-08-06T14:23:53;5.45;;;1.45;;
70997;SDS011;58663;52.040;4.634;2023-08-06T14:26:19;6.03;;;1.00;;
70997;SDS011;58663;52.040;4.634;2023-08-06T14:28:56;6.60;;;1.27;;
70997;SDS011;58663;52.040;4.634;2023-08-06T14:31:23;4.07;;;1.00;;
70997;SDS011;58663;52.040;4.634;2023-08-06T14:33:48;7.80;;;1.40;;
70997;SDS011;58663;52.040;4.634;2023-08-06T14:36:14;11.75;;;1.67;;